Time;durP1;ratioP1;P1;durP2;ratioP2;P2;SDS_P1;SDS_P2;PMS_P1;PMS_P2;Temp;Humidity;BMP_temperature;BMP_pressure;BME280_temperature;BME280_humidity;BME280_pressure;Samples;Min_cycle;Max_cycle;Signal;HPM_P1;HPM_P2
2022/03/29 00:01:55;;;;;;;29.97;21.57;;;;;;;;;;4985668;28;20429;-68
2022/03/29 00:04:22;;;;;;;30.63;22.35;;;;;;;;;;4983433;28;20443;-68
2022/03/29 00:06:48;;;;;;;33.88;22.17;;;;;;;;;;5000553;28;20452;-68
2022/03/29 00:09:15;;;;;;;33.78;21.73;;;;;;;;;;4983341;28;20493;-69
2022/03/29 00:11:41;;;;;;;33.55;23.05;;;;;;;;;;4980181;28;20516;-68
2022/03/29 00:14:07;;;;;;;35.72;23.30;;;;;;;;;;4976719;28;20427;-68
2022/03/29 00:16:34;;;;;;;31.98;21.48;;;;;;;;;;4983077;28;20439;-68
2022/03/29 00:19:00;;;;;;;36.42;22.90;;;;;;;;;;4998115;28;20433;-68
2022/03/29 00:21:26;;;;;;;34.58;23.60;;;;;;;;;;4972824;28;20504;-69
2022/03/29 00:23:52;;;;;;;32.03;21.77;;;;;;;;;;5002795;28;20455;-69
2022/03/29 00:26:19;;;;;;;30.00;20.73;;;;;;;;;;4986337;28;20425;-69
2022/03/29 00:28:45;;;;;;;32.35;21.13;;;7.60;99.90;;;;;;4973025;28;20446;-70
2022/03/29 00:31:16;;;;;;;33.78;22.20;;;;;;;;;;5002020;28;20421;-69
2022/03/29 00:33:42;;;;;;;32.97;21.83;;;;;;;;;;4998264;28;20457;-70
2022/03/29 00:36:08;;;;;;;32.10;22.38;;;;;;;;;;5004256;28;20436;-69
2022/03/29 00:38:34;;;;;;;32.92;22.08;;;;;;;;;;5005578;28;20999;-69
2022/03/29 00:41:01;;;;;;;36.13;21.87;;;;;;;;;;4983784;28;20565;-69
2022/03/29 00:43:28;;;;;;;29.85;21.15;;;;;;;;;;4984141;28;20931;-70
2022/03/29 00:45:54;;;;;;;31.40;20.63;;;;;;;;;;4995865;28;20455;-69
2022/03/29 00:48:20;;;;;;;31.10;20.83;;;;;;;;;;4987372;28;20438;-69
2022/03/29 00:50:47;;;;;;;32.17;20.98;;;;;;;;;;4992287;28;20429;-69
2022/03/29 00:53:13;;;;;;;32.80;21.23;;;;;;;;;;4974672;28;20457;-69
2022/03/29 00:55:41;;;;;;;30.05;21.48;;;;;;;;;;4993163;28;20460;-69
2022/03/29 00:58:07;;;;;;;30.00;21.33;;;;;;;;;;4984564;28;20433;-69
2022/03/29 01:00:35;;;;;;;32.30;20.25;;;7.80;99.90;;;;;;4976611;28;20525;-69
2022/03/29 01:03:03;;;;;;;31.23;20.73;;;;;;;;;;5005804;28;20457;-69
2022/03/29 01:05:29;;;;;;;28.17;20.02;;;;;;;;;;4976411;28;20435;-69
2022/03/29 01:07:56;;;;;;;29.80;19.90;;;;;;;;;;4978030;28;20482;-69
2022/03/29 01:10:23;;;;;;;27.37;18.73;;;;;;;;;;5003912;28;20537;-69
2022/03/29 01:12:49;;;;;;;35.13;20.23;;;;;;;;;;5000783;28;20473;-70
2022/03/29 01:15:16;;;;;;;32.15;20.42;;;;;;;;;;4980365;28;20479;-70
2022/03/29 01:17:43;;;;;;;28.17;19.67;;;;;;;;;;4982401;28;20464;-70
2022/03/29 01:20:19;;;;;;;32.03;21.15;;;;;;;;;;5004914;28;20432;-70
2022/03/29 01:22:47;;;;;;;30.45;19.70;;;;;;;;;;4995900;28;20445;-70
2022/03/29 01:25:14;;;;;;;31.83;20.70;;;;;;;;;;4987004;28;20464;-70
2022/03/29 01:27:41;;;;;;;31.40;20.15;;;;;;;;;;4992427;28;21046;-70
2022/03/29 01:30:07;;;;;;;31.00;20.17;;;;;;;;;;5002101;28;20519;-69
2022/03/29 01:32:35;;;;;;;29.02;19.67;;;;;;;;;;5007500;28;20440;-69
2022/03/29 01:35:02;;;;;;;29.55;19.75;;;;;;;;;;5006126;28;20470;-69
2022/03/29 01:37:28;;;;;;;29.23;19.27;;;;;;;;;;4985838;28;20453;-70
2022/03/29 01:39:54;;;;;;;31.00;20.50;;;;;;;;;;4998258;28;20434;-70
2022/03/29 01:42:21;;;;;;;30.25;19.23;;;;;;;;;;5002110;28;20446;-70
2022/03/29 01:44:47;;;;;;;28.25;19.02;;;;;;;;;;4983387;28;22237;-70
2022/03/29 01:47:13;;;;;;;31.98;18.60;;;;;;;;;;4985100;28;20511;-70
2022/03/29 01:49:40;;;;;;;33.55;20.13;;;;;;;;;;4991374;28;20473;-69
2022/03/29 01:52:06;;;;;;;30.30;19.83;;;;;;;;;;4977388;28;20441;-69
2022/03/29 01:54:32;;;;;;;27.15;18.95;;;;;;;;;;4990346;28;20671;-69
2022/03/29 01:56:58;;;;;;;29.65;19.92;;;;;;;;;;5002934;28;20433;-69
2022/03/29 01:59:24;;;;;;;31.90;19.92;;;;;;;;;;4986103;28;20442;-70
2022/03/29 02:01:50;;;;;;;32.30;19.42;;;;;;;;;;5002610;28;20429;-69
2022/03/29 02:04:17;;;;;;;31.05;20.00;;;;;;;;;;4986095;28;21432;-69
2022/03/29 02:06:43;;;;;;;31.85;20.38;;;;;;;;;;4999206;28;20440;-69
2022/03/29 02:09:13;;;;;;;30.88;20.02;;;;;;;;;;4980217;28;20442;-70
2022/03/29 02:11:42;;;;;;;31.20;19.95;;;;;;;;;;4974089;28;20424;-70
2022/03/29 02:14:08;;;;;;;31.20;19.92;;;;;;;;;;4989103;28;20437;-69
2022/03/29 02:16:35;;;;;;;34.60;19.83;;;;;;;;;;5004753;28;20478;-69
2022/03/29 02:19:00;;;;;;;29.77;20.40;;;7.50;99.90;;;;;;5002510;28;20443;-69
2022/03/29 02:21:26;;;;;;;34.33;21.55;;;;;;;;;;4982354;28;20445;-69
2022/03/29 02:23:52;;;;;;;33.25;20.48;;;;;;;;;;4983990;28;20433;-69
2022/03/29 02:26:18;;;;;;;31.33;20.70;;;;;;;;;;5005044;28;20508;-69
2022/03/29 02:28:45;;;;;;;33.92;21.23;;;;;;;;;;4992797;28;20437;-69
2022/03/29 02:31:11;;;;;;;30.60;19.60;;;;;;;;;;5005479;28;20551;-70
2022/03/29 02:33:37;;;;;;;31.30;20.65;;;;;;;;;;5000250;28;20439;-70
2022/03/29 02:36:03;;;;;;;30.85;19.88;;;;;;;;;;4987586;28;20731;-69
2022/03/29 02:38:29;;;;;;;31.08;19.70;;;;;;;;;;4974722;28;20528;-69
2022/03/29 02:40:58;;;;;;;29.60;19.80;;;;;;;;;;5007941;28;20512;-69
2022/03/29 02:43:25;;;;;;;29.40;19.13;;;;;;;;;;4984678;28;20947;-69
2022/03/29 02:45:51;;;;;;;34.15;19.33;;;7.60;99.90;;;;;;4993370;28;20433;-69
2022/03/29 02:48:17;;;;;;;31.25;19.38;;;;;;;;;;5004760;28;20440;-69
2022/03/29 02:50:43;;;;;;;30.17;19.60;;;;;;;;;;4988398;28;21100;-69
2022/03/29 02:53:11;;;;;;;30.27;19.50;;;;;;;;;;4984378;28;20440;-69
2022/03/29 02:55:36;;;;;;;32.55;18.73;;;7.60;99.90;;;;;;4988219;28;20498;-70
2022/03/29 02:58:03;;;;;;;30.33;19.63;;;;;;;;;;4991320;28;20865;-69
2022/03/29 03:00:30;;;;;;;29.50;18.92;;;;;;;;;;4988127;28;20421;-69
2022/03/29 03:02:57;;;;;;;29.65;18.75;;;7.80;99.90;;;;;;4963355;28;20451;-69
2022/03/29 03:05:26;;;;;;;32.42;19.23;;;;;;;;;;5074583;28;20409;-69
2022/03/29 03:07:54;;;;;;;27.70;18.53;;;7.80;99.90;;;;;;4983548;28;21326;-69
2022/03/29 03:10:20;;;;;;;28.27;18.70;;;;;;;;;;4989495;28;20440;-69
2022/03/29 03:12:47;;;;;;;30.75;19.17;;;;;;;;;;4980248;28;20506;-69
2022/03/29 03:15:15;;;;;;;31.17;19.60;;;;;;;;;;4967536;28;20435;-69
2022/03/29 03:17:42;;;;;;;31.73;19.88;;;;;;;;;;4996625;28;20928;-69
2022/03/29 03:20:09;;;;;;;28.63;19.55;;;;;;;;;;5010284;28;20434;-69
2022/03/29 03:22:38;;;;;;;29.25;19.90;;;;;;;;;;4995327;28;20941;-69
2022/03/29 03:25:05;;;;;;;30.75;19.67;;;;;;;;;;4980976;28;20445;-69
2022/03/29 03:27:31;;;;;;;30.58;20.13;;;;;;;;;;4996560;28;20442;-69
2022/03/29 03:29:57;;;;;;;35.03;20.40;;;;;;;;;;5003050;28;20447;-69
2022/03/29 03:32:23;;;;;;;30.10;20.35;;;;;;;;;;5000162;28;20494;-69
2022/03/29 03:34:49;;;;;;;32.25;20.80;;;;;;;;;;5007606;28;20777;-69
2022/03/29 03:37:16;;;;;;;33.90;20.70;;;;;;;;;;5006859;28;20470;-69
2022/03/29 03:39:42;;;;;;;33.03;20.25;;;;;;;;;;4968215;28;20439;-69
2022/03/29 03:42:09;;;;;;;32.47;20.73;;;;;;;;;;4984376;28;20430;-69
2022/03/29 03:44:36;;;;;;;33.60;21.02;;;;;;;;;;5008378;28;20860;-69
2022/03/29 03:47:03;;;;;;;34.80;21.57;;;;;;;;;;4977824;28;20505;-69
2022/03/29 03:49:29;;;;;;;35.22;22.15;;;;;;;;;;5008926;28;20432;-69
2022/03/29 03:51:55;;;;;;;36.60;22.38;;;;;;;;;;4990425;28;20443;-68
2022/03/29 03:54:21;;;;;;;34.38;22.00;;;;;;;;;;4993012;28;20521;-69
2022/03/29 03:56:47;;;;;;;35.45;22.77;;;;;;;;;;4985641;28;20468;-69
2022/03/29 03:59:13;;;;;;;35.45;22.25;;;7.30;99.90;;;;;;5067391;28;20509;-69
2022/03/29 04:01:39;;;;;;;37.90;23.83;;;;;;;;;;4993313;28;20471;-69
2022/03/29 04:04:05;;;;;;;35.70;22.08;;;;;;;;;;4988742;28;20482;-69
2022/03/29 04:06:31;;;;;;;37.50;23.33;;;;;;;;;;5000475;28;20429;-68
2022/03/29 04:08:58;;;;;;;34.78;22.08;;;;;;;;;;4980006;28;20800;-69
2022/03/29 04:11:24;;;;;;;34.38;22.35;;;;;;;;;;4995355;28;21429;-69
2022/03/29 04:13:50;;;;;;;37.67;23.02;;;;;;;;;;4992753;28;20433;-69
2022/03/29 04:16:16;;;;;;;37.97;22.30;;;;;;;;;;4990904;28;20833;-69
2022/03/29 04:18:42;;;;;;;34.20;22.60;;;;;;;;;;4979828;28;20433;-69
2022/03/29 04:21:09;;;;;;;39.83;23.08;;;;;;;;;;4994857;28;20432;-68
2022/03/29 04:23:35;;;;;;;34.95;23.05;;;;;;;;;;4982142;28;20433;-69
2022/03/29 04:26:02;;;;;;;39.88;22.42;;;;;;;;;;4990245;28;20436;-68
2022/03/29 04:28:29;;;;;;;39.20;23.08;;;;;;;;;;4989708;28;20440;-69
2022/03/29 04:30:55;;;;;;;38.95;24.08;;;;;;;;;;5004152;28;20461;-69
2022/03/29 04:33:25;;;;;;;37.38;22.83;;;;;;;;;;4982503;28;20433;-69
2022/03/29 04:35:51;;;;;;;36.88;22.40;;;;;;;;;;4991908;28;20461;-69
2022/03/29 04:38:17;;;;;;;33.17;22.63;;;;;;;;;;5003073;28;20942;-69
2022/03/29 04:40:43;;;;;;;35.07;22.90;;;;;;;;;;5008359;28;20455;-69
2022/03/29 04:43:09;;;;;;;35.83;23.25;;;;;;;;;;4980309;28;20428;-68
2022/03/29 04:45:35;;;;;;;36.00;23.52;;;;;;;;;;4984496;28;20441;-68
2022/03/29 04:48:01;;;;;;;37.10;22.50;;;;;;;;;;4984714;28;20425;-68
2022/03/29 04:50:29;;;;;;;38.45;22.50;;;;;;;;;;4996256;28;20481;-69
2022/03/29 04:52:58;;;;;;;36.85;24.13;;;;;;;;;;4988841;28;20453;-68
2022/03/29 04:55:24;;;;;;;37.80;23.02;;;;;;;;;;4974975;28;20991;-68
2022/03/29 04:57:51;;;;;;;37.38;23.60;;;;;;;;;;5012046;28;20428;-68
2022/03/29 05:00:20;;;;;;;35.00;22.98;;;;;;;;;;4989737;28;20430;-69
2022/03/29 05:02:47;;;;;;;35.72;23.20;;;;;;;;;;4980946;28;20428;-69
2022/03/29 05:05:13;;;;;;;37.50;23.52;;;;;;;;;;5008755;28;20424;-68
2022/03/29 05:07:40;;;;;;;41.30;24.60;;;;;;;;;;4995522;28;20464;-69
2022/03/29 05:10:08;;;;;;;38.53;23.00;;;;;;;;;;5004717;28;20455;-68
2022/03/29 05:12:51;;;;;;;37.30;23.13;;;7.50;99.90;;;;;;4981603;28;20432;-69
2022/03/29 05:15:18;;;;;;;36.13;23.27;;;;;;;;;;4992405;28;20451;-69
2022/03/29 05:17:45;;;;;;;37.93;23.60;;;;;;;;;;5002335;28;20436;-69
2022/03/29 05:20:12;;;;;;;39.33;23.50;;;;;;;;;;4995353;28;20796;-69
2022/03/29 05:22:42;;;;;;;40.22;23.67;;;;;;;;;;5002105;28;20438;-68
2022/03/29 05:25:08;;;;;;;38.95;23.70;;;;;;;;;;4990388;28;20447;-68
2022/03/29 05:27:34;;;;;;;36.63;24.50;;;;;;;;;;5008223;28;20516;-69
2022/03/29 05:30:00;;;;;;;36.03;22.48;;;;;;;;;;4981692;28;20454;-68
2022/03/29 05:32:26;;;;;;;38.38;22.63;;;;;;;;;;4974880;28;21215;-69
2022/03/29 05:34:52;;;;;;;42.28;24.42;;;;;;;;;;5007886;28;20428;-69
2022/03/29 05:37:18;;;;;;;39.45;23.55;;;;;;;;;;5009630;28;20439;-69
2022/03/29 05:39:44;;;;;;;40.60;23.25;;;7.40;99.90;;;;;;4994805;28;20462;-69
2022/03/29 05:42:11;;;;;;;41.30;23.45;;;;;;;;;;4997221;28;20446;-69
2022/03/29 05:44:37;;;;;;;40.00;23.58;;;;;;;;;;4999060;28;20425;-68
2022/03/29 05:49:50;;;;;;;41.70;23.80;;;;;;;;;;4998507;28;20429;-69
2022/03/29 05:52:16;;;;;;;38.92;23.73;;;;;;;;;;4993874;28;20489;-68
2022/03/29 05:54:45;;;;;;;38.00;24.20;;;;;;;;;;4993831;28;20475;-68
2022/03/29 05:57:11;;;;;;;39.13;24.08;;;;;;;;;;4975142;28;20433;-69
2022/03/29 05:59:37;;;;;;;38.38;23.88;;;;;;;;;;4983172;28;20422;-69
2022/03/29 06:02:04;;;;;;;38.97;23.85;;;;;;;;;;4971504;28;20422;-68
2022/03/29 06:04:33;;;;;;;38.63;24.00;;;;;;;;;;4992063;28;20438;-69
2022/03/29 06:06:59;;;;;;;41.00;24.38;;;;;;;;;;4992149;28;20433;-68
2022/03/29 06:09:25;;;;;;;39.72;24.13;;;7.40;99.90;;;;;;4986469;28;20451;-68
2022/03/29 06:11:52;;;;;;;40.40;25.33;;;;;;;;;;4996397;28;20475;-68
2022/03/29 06:14:18;;;;;;;40.67;24.27;;;;;;;;;;5009145;28;20507;-68
2022/03/29 06:16:44;;;;;;;39.15;23.40;;;;;;;;;;4991991;28;20516;-70
2022/03/29 06:19:10;;;;;;;36.95;23.23;;;;;;;;;;5001983;28;20425;-69
2022/03/29 06:21:37;;;;;;;38.30;24.75;;;;;;;;;;4988840;28;20451;-70
2022/03/29 06:24:04;;;;;;;37.25;24.45;;;;;;;;;;4978137;28;20448;-70
2022/03/29 06:26:30;;;;;;;38.70;23.55;;;7.50;99.90;;;;;;4982232;28;20440;-69
2022/03/29 06:28:57;;;;;;;38.33;23.98;;;;;;;;;;4984040;28;20427;-70
2022/03/29 06:31:23;;;;;;;45.13;24.88;;;;;;;;;;4994400;28;20838;-70
2022/03/29 06:33:49;;;;;;;40.53;24.15;;;;;;;;;;4980028;28;20496;-70
2022/03/29 06:36:16;;;;;;;36.90;23.83;;;;;;;;;;4969018;28;20440;-69
2022/03/29 06:38:44;;;;;;;42.35;23.48;;;;;;;;;;4976220;28;20423;-70
2022/03/29 06:41:13;;;;;;;39.60;24.10;;;;;;;;;;5006188;28;20435;-70
2022/03/29 06:43:42;;;;;;;42.03;24.30;;;;;;;;;;4980784;28;20432;-70
2022/03/29 06:46:09;;;;;;;39.75;23.23;;;;;;;;;;4984017;28;20432;-70
2022/03/29 06:48:35;;;;;;;39.60;24.48;;;;;;;;;;5000125;28;20496;-70
2022/03/29 06:51:01;;;;;;;38.78;24.92;;;;;;;;;;5004481;28;20439;-70
2022/03/29 06:53:28;;;;;;;41.80;24.48;;;;;;;;;;5001679;28;20433;-70
2022/03/29 06:55:54;;;;;;;37.22;24.80;;;;;;;;;;5005256;28;20429;-70
2022/03/29 06:58:20;;;;;;;40.45;24.05;;;;;;;;;;4990747;28;20425;-70
2022/03/29 07:00:47;;;;;;;35.85;23.38;;;;;;;;;;4973649;28;20477;-70
2022/03/29 07:03:13;;;;;;;41.63;24.73;;;;;;;;;;4985863;28;20429;-70
2022/03/29 07:05:42;;;;;;;40.70;24.58;;;;;;;;;;5000721;28;20500;-70
2022/03/29 07:08:12;;;;;;;38.63;23.50;;;;;;;;;;4989107;28;20429;-70
2022/03/29 07:13:23;;;;;;;39.05;23.17;;;;;;;;;;4974093;28;20428;-68
2022/03/29 07:15:51;;;;;;;39.65;24.33;;;7.80;99.90;;;;;;4979021;28;20535;-69
2022/03/29 07:18:17;;;;;;;41.75;24.77;;;;;;;;;;4987772;28;20492;-69
2022/03/29 07:20:43;;;;;;;38.83;23.75;;;;;;;;;;4960994;28;20440;-72
2022/03/29 07:23:10;;;;;;;46.72;24.02;;;;;;;;;;4994049;28;20433;-69
2022/03/29 07:25:36;;;;;;;41.45;24.50;;;;;;;;;;4991800;28;20733;-69
2022/03/29 07:28:02;;;;;;;43.28;24.95;;;;;;;;;;4976533;28;20429;-69
2022/03/29 07:30:29;;;;;;;41.75;25.13;;;;;;;;;;4964724;28;20451;-69
2022/03/29 07:32:59;;;;;;;43.30;24.98;;;;;;;;;;5025241;28;20463;-69
2022/03/29 07:35:27;;;;;;;41.78;24.23;;;;;;;;;;4991249;28;20415;-71
2022/03/29 07:37:53;;;;;;;44.75;24.17;;;;;;;;;;4990140;28;20458;-69
2022/03/29 07:40:21;;;;;;;39.55;24.00;;;;;;;;;;5003073;28;20478;-69
2022/03/29 07:42:49;;;;;;;42.38;24.00;;;7.70;99.90;;;;;;4981420;28;20426;-69
2022/03/29 07:45:16;;;;;;;40.10;23.70;;;;;;;;;;4998039;28;20443;-69
2022/03/29 07:47:43;;;;;;;40.90;24.02;;;;;;;;;;4996512;28;20482;-69
2022/03/29 07:50:11;;;;;;;42.05;24.60;;;;;;;;;;4970640;28;20433;-69
2022/03/29 07:52:38;;;;;;;39.17;23.60;;;;;;;;;;5000381;28;20422;-68
2022/03/29 07:55:06;;;;;;;39.77;23.27;;;;;;;;;;5000929;28;20452;-69
2022/03/29 07:57:32;;;;;;;39.90;23.83;;;;;;;;;;5001356;28;20923;-69
2022/03/29 07:59:59;;;;;;;41.03;23.92;;;;;;;;;;4997259;28;20436;-69
2022/03/29 08:02:25;;;;;;;40.05;24.75;;;;;;;;;;4987410;28;20434;-69
2022/03/29 08:04:51;;;;;;;41.67;24.55;;;;;;;;;;4986857;28;20455;-69
2022/03/29 08:07:17;;;;;;;38.90;24.35;;;;;;;;;;4984052;28;20429;-69
2022/03/29 08:09:44;;;;;;;39.73;25.57;;;;;;;;;;5008858;28;20433;-68
2022/03/29 08:12:10;;;;;;;41.17;25.60;;;;;;;;;;4979471;28;20491;-68
2022/03/29 08:14:38;;;;;;;39.92;23.98;;;;;;;;;;4979872;28;20434;-68
2022/03/29 08:17:04;;;;;;;39.07;22.80;;;;;;;;;;4997965;28;20454;-68
2022/03/29 08:19:31;;;;;;;38.88;22.92;;;;;;;;;;4995372;28;20454;-68
2022/03/29 08:21:57;;;;;;;42.03;24.75;;;;;;;;;;4992666;28;20421;-69
2022/03/29 08:24:24;;;;;;;38.30;23.73;;;;;;;;;;4995588;28;20579;-69
2022/03/29 08:26:52;;;;;;;39.72;23.20;;;8.50;99.90;;;;;;5006761;28;20440;-68
2022/03/29 08:29:22;;;;;;;44.40;23.85;;;;;;;;;;4973366;28;20444;-68
2022/03/29 08:31:49;;;;;;;38.17;23.27;;;;;;;;;;4989578;28;21129;-68
2022/03/29 08:34:16;;;;;;;42.72;23.23;;;;;;;;;;4989224;28;20493;-69
2022/03/29 08:36:42;;;;;;;44.03;24.83;;;8.20;99.90;;;;;;5004826;28;20489;-69
2022/03/29 08:39:09;;;;;;;41.05;24.33;;;;;;;;;;4989219;28;20421;-69
2022/03/29 08:41:39;;;;;;;41.65;24.23;;;;;;;;;;4990842;28;20440;-69
2022/03/29 08:44:09;;;;;;;41.42;22.80;;;;;;;;;;4975729;28;20439;-69
2022/03/29 08:46:38;;;;;;;43.47;22.42;;;;;;;;;;4988282;28;20434;-69
2022/03/29 08:49:05;;;;;;;41.30;22.73;;;;;;;;;;5005868;28;20512;-69
2022/03/29 08:51:31;;;;;;;45.15;23.15;;;;;;;;;;4995516;28;20548;-69
2022/03/29 08:53:57;;;;;;;36.63;22.40;;;;;;;;;;4989605;28;20443;-69
2022/03/29 08:56:23;;;;;;;40.28;22.83;;;;;;;;;;4979129;28;20426;-69
2022/03/29 08:58:50;;;;;;;42.05;21.38;;;;;;;;;;4984055;28;20631;-69
2022/03/29 09:01:21;;;;;;;42.80;22.27;;;;;;;;;;5000726;28;21001;-68
2022/03/29 09:04:10;;;;;;;36.35;20.90;;;;;;;;;;5006548;28;20508;-69
2022/03/29 09:06:54;;;;;;;36.58;21.10;;;;;;;;;;4972699;28;20443;-69
2022/03/29 09:09:23;;;;;;;40.95;22.33;;;;;;;;;;4989736;28;20470;-69
2022/03/29 09:11:51;;;;;;;36.75;21.52;;;;;;;;;;4981726;28;20510;-69
2022/03/29 09:14:18;;;;;;;37.93;21.77;;;;;;;;;;5003768;28;20433;-69
2022/03/29 09:16:44;;;;;;;35.15;20.92;;;;;;;;;;4959545;28;20424;-69
2022/03/29 09:19:11;;;;;;;34.55;20.75;;;9.20;99.90;;;;;;4983404;28;20423;-68
2022/03/29 09:21:41;;;;;;;35.53;22.08;;;;;;;;;;4979616;28;20443;-69
2022/03/29 09:24:09;;;;;;;38.88;22.05;;;;;;;;;;4989532;28;20592;-70
2022/03/29 09:26:40;;;;;;;36.25;20.90;;;;;;;;;;4982438;28;20837;-70
2022/03/29 09:29:22;;;;;;;37.75;21.15;;;;;;;;;;4990088;28;20465;-69
2022/03/29 09:32:03;;;;;;;36.72;21.60;;;;;;;;;;4971168;28;20425;-69
2022/03/29 09:34:29;;;;;;;42.20;22.45;;;;;;;;;;5007555;28;20455;-69
2022/03/29 09:36:55;;;;;;;34.77;20.70;;;;;;;;;;4994083;28;20472;-69
2022/03/29 09:39:41;;;;;;;35.17;21.45;;;;;;;;;;5002715;28;20458;-70
2022/03/29 09:42:07;;;;;;;34.65;19.98;;;;;;;;;;4989372;28;20480;-70
2022/03/29 09:44:44;;;;;;;31.95;18.38;;;;;;;;;;5009118;28;20750;-69
2022/03/29 09:47:13;;;;;;;33.90;18.48;;;10.00;99.90;;;;;;4990380;28;20442;-69
2022/03/29 09:49:57;;;;;;;31.27;18.15;;;;;;;;;;4958173;28;20436;-69
2022/03/29 09:52:31;;;;;;;34.58;18.88;;;;;;;;;;4975917;28;20432;-69
2022/03/29 09:55:23;;;;;;;34.63;19.13;;;;;;;;;;4995268;28;20443;-70
2022/03/29 09:57:51;;;;;;;34.17;19.35;;;;;;;;;;4990712;28;21022;-69
2022/03/29 10:00:19;;;;;;;31.53;19.40;;;;;;;;;;4978830;28;20439;-69
2022/03/29 10:02:46;;;;;;;35.40;18.92;;;;;;;;;;4993026;28;20465;-69
2022/03/29 10:05:14;;;;;;;32.30;19.20;;;;;;;;;;4985138;28;20787;-69
2022/03/29 10:07:43;;;;;;;36.40;19.27;;;;;;;;;;4975142;28;20461;-68
2022/03/29 10:10:10;;;;;;;33.25;18.83;;;;;;;;;;4980450;28;20434;-69
2022/03/29 10:12:37;;;;;;;38.28;18.08;;;;;;;;;;4991420;28;20437;-69
2022/03/29 10:15:03;;;;;;;33.05;18.13;;;;;;;;;;4998598;28;20432;-69
2022/03/29 10:17:29;;;;;;;34.53;17.90;;;;;;;;;;4980944;28;21058;-69
2022/03/29 10:19:56;;;;;;;29.58;16.50;;;10.90;99.90;;;;;;4990452;28;20444;-69
2022/03/29 10:22:22;;;;;;;32.00;15.73;;;;;;;;;;5003772;28;20864;-69
2022/03/29 10:24:48;;;;;;;31.33;15.85;;;;;;;;;;5000770;28;20492;-68
2022/03/29 10:27:16;;;;;;;30.13;15.20;;;;;;;;;;5001134;28;20728;-68
2022/03/29 10:29:45;;;;;;;29.90;15.07;;;;;;;;;;4992138;28;20437;-69
2022/03/29 10:32:11;;;;;;;29.13;14.77;;;;;;;;;;4993604;28;20432;-69
2022/03/29 10:34:42;;;;;;;31.98;15.57;;;;;;;;;;4988328;28;20428;-69
2022/03/29 10:37:27;;;;;;;28.55;14.38;;;;;;;;;;4989064;28;20444;-69
2022/03/29 10:39:57;;;;;;;28.80;14.82;;;;;;;;;;4972157;28;20433;-69
2022/03/29 10:42:28;;;;;;;26.20;13.55;;;;;;;;;;4983852;28;20443;-69
2022/03/29 10:45:00;;;;;;;26.73;13.23;;;;;;;;;;5002751;28;21046;-68
2022/03/29 10:47:27;;;;;;;24.53;13.30;;;;;;;;;;5006200;28;20533;-68
2022/03/29 10:49:53;;;;;;;25.02;13.82;;;;;;;;;;4984710;28;20589;-68
2022/03/29 10:52:23;;;;;;;24.20;13.02;;;;;;;;;;4986602;28;20447;-68
2022/03/29 10:54:50;;;;;;;28.52;13.10;;;;;;;;;;4989941;28;20801;-69
2022/03/29 10:57:25;;;;;;;24.48;12.15;;;;;;;;;;4990136;28;20440;-68
2022/03/29 11:00:07;;;;;;;27.85;12.35;;;;;;;;;;4991104;28;20458;-68
2022/03/29 11:02:33;;;;;;;29.70;12.80;;;11.00;99.90;;;;;;4992323;28;20433;-68
2022/03/29 11:05:02;;;;;;;24.77;12.13;;;;;;;;;;5002636;28;20448;-68
2022/03/29 11:07:30;;;;;;;23.15;11.50;;;;;;;;;;5007907;28;20490;-68
2022/03/29 11:10:09;;;;;;;23.33;11.73;;;;;;;;;;4978362;28;20622;-69
2022/03/29 11:12:43;;;;;;;26.15;12.32;;;;;;;;;;4985561;28;20458;-68
2022/03/29 11:15:24;;;;;;;23.48;11.88;;;;;;;;;;4977028;28;20528;-68
2022/03/29 11:17:56;;;;;;;27.90;11.43;;;;;;;;;;4962755;28;20450;-69
2022/03/29 11:20:35;;;;;;;24.67;11.40;;;;;;;;;;4975961;28;20492;-69
2022/03/29 11:23:04;;;;;;;25.30;11.52;;;;;;;;;;4978529;28;20429;-68
2022/03/29 11:25:31;;;;;;;21.52;11.55;;;;;;;;;;4987322;28;20464;-68
2022/03/29 11:28:14;;;;;;;28.48;11.77;;;;;;;;;;5003097;28;20466;-68
2022/03/29 11:30:41;;;;;;;28.00;11.48;;;;;;;;;;4984794;28;20464;-68
2022/03/29 11:33:08;;;;;;;23.40;10.85;;;;;;;;;;4985807;28;20865;-70
2022/03/29 11:35:35;;;;;;;26.60;10.95;;;;;;;;;;4977080;28;20530;-69
2022/03/29 11:38:09;;;;;;;25.80;11.48;;;;;;;;;;4991160;28;20428;-68
2022/03/29 11:40:36;;;;;;;26.70;11.52;;;;;;;;;;4983006;28;20448;-68
2022/03/29 11:43:05;;;;;;;25.13;11.02;;;;;;;;;;4991831;28;20417;-68
2022/03/29 11:45:36;;;;;;;24.23;11.70;;;;;;;;;;4995064;28;20434;-68
2022/03/29 11:48:07;;;;;;;23.98;10.95;;;;;;;;;;4984189;28;20444;-68
2022/03/29 11:50:56;;;;;;;23.42;11.02;;;;;;;;;;4993622;28;20448;-68
2022/03/29 11:53:24;;;;;;;23.52;11.10;;;;;;;;;;4981976;28;20477;-69
2022/03/29 11:55:57;;;;;;;23.40;10.35;;;;;;;;;;4989227;28;20444;-69
2022/03/29 11:58:26;;;;;;;23.35;10.52;;;;;;;;;;4990892;28;20846;-69
2022/03/29 12:00:56;;;;;;;23.48;10.75;;;;;;;;;;4966237;28;20442;-69
2022/03/29 12:03:26;;;;;;;18.40;10.40;;;;;;;;;;4968057;28;20458;-69
2022/03/29 12:06:01;;;;;;;21.58;10.15;;;;;;;;;;4986969;28;20459;-69
2022/03/29 12:08:42;;;;;;;24.00;10.73;;;;;;;;;;5000820;28;20451;-69
2022/03/29 12:11:12;;;;;;;26.92;10.70;;;;;;;;;;4991169;28;20509;-68
2022/03/29 12:13:38;;;;;;;21.27;10.65;;;;;;;;;;4985114;28;20432;-68
2022/03/29 12:16:17;;;;;;;21.25;9.10;;;;;;;;;;4989284;28;20434;-68
2022/03/29 12:18:45;;;;;;;20.95;9.55;;;;;;;;;;4983660;28;20436;-68
2022/03/29 12:21:11;;;;;;;24.45;9.63;;;;;;;;;;4984861;28;20943;-68
2022/03/29 12:23:38;;;;;;;22.95;10.13;;;;;;;;;;4965476;28;21532;-68
2022/03/29 12:26:04;;;;;;;22.80;9.57;;;;;;;;;;4997181;28;20429;-68
2022/03/29 12:28:31;;;;;;;23.08;9.35;;;;;;;;;;4973738;28;20429;-69
2022/03/29 12:30:57;;;;;;;22.35;9.23;;;;;;;;;;4996035;28;20490;-68
2022/03/29 12:33:24;;;;;;;24.30;9.70;;;;;;;;;;4995871;28;20433;-69
2022/03/29 12:36:07;;;;;;;25.07;9.47;;;;;;;;;;5008049;28;20442;-68
2022/03/29 12:38:52;;;;;;;25.80;9.70;;;;;;;;;;4987378;28;20438;-68
2022/03/29 12:41:32;;;;;;;21.52;9.88;;;;;;;;;;4982834;28;20429;-69
2022/03/29 12:43:58;;;;;;;24.30;10.37;;;11.90;99.90;;;;;;4986187;28;20442;-68
2022/03/29 12:46:24;;;;;;;22.27;10.13;;;;;;;;;;4982894;28;20492;-68
2022/03/29 12:48:50;;;;;;;18.77;9.73;;;;;;;;;;4984057;28;20468;-69
2022/03/29 12:51:17;;;;;;;19.58;9.80;;;;;;;;;;4985531;28;20445;-69
2022/03/29 12:54:00;;;;;;;23.83;10.15;;;;;;;;;;4972653;28;20462;-69
2022/03/29 12:56:31;;;;;;;22.08;9.75;;;;;;;;;;4978444;28;20429;-69
2022/03/29 12:58:58;;;;;;;20.98;9.77;;;;;;;;;;4993793;28;20508;-69
2022/03/29 13:01:31;;;;;;;19.92;10.02;;;;;;;;;;4981664;28;20457;-68
2022/03/29 13:04:07;;;;;;;22.38;9.57;;;;;;;;;;4982131;28;20437;-68
2022/03/29 13:06:43;;;;;;;25.93;10.13;;;;;;;;;;4987389;28;20448;-68
2022/03/29 13:09:13;;;;;;;22.98;9.98;;;;;;;;;;4993368;28;20516;-68
2022/03/29 13:11:40;;;;;;;19.63;9.93;;;;;;;;;;4996239;28;20438;-69
2022/03/29 13:14:07;;;;;;;21.85;10.20;;;;;;;;;;5004308;28;20441;-69
2022/03/29 13:16:33;;;;;;;21.23;10.15;;;;;;;;;;4979757;28;20429;-69
2022/03/29 13:18:59;;;;;;;18.35;8.80;;;;;;;;;;4972536;28;20641;-68
2022/03/29 13:21:34;;;;;;;19.67;10.00;;;;;;;;;;4974539;28;20430;-68
2022/03/29 13:24:14;;;;;;;26.43;9.87;;;;;;;;;;4989550;28;20999;-68
2022/03/29 13:26:40;;;;;;;23.25;9.88;;;;;;;;;;4996082;28;20442;-68
2022/03/29 13:29:11;;;;;;;20.42;10.50;;;;;;;;;;4988960;28;20816;-69
2022/03/29 13:31:38;;;;;;;17.80;9.45;;;;;;;;;;5000150;28;20441;-69
2022/03/29 13:34:07;;;;;;;17.38;9.35;;;;;;;;;;4995345;28;20431;-68
2022/03/29 13:36:34;;;;;;;23.80;10.33;;;;;;;;;;4975330;28;20946;-69
2022/03/29 13:39:00;;;;;;;19.45;9.63;;;;;;;;;;4986845;28;20884;-68
2022/03/29 13:41:26;;;;;;;20.47;10.17;;;;;;;;;;4978833;28;20464;-68
2022/03/29 13:43:53;;;;;;;19.05;9.32;;;;;;;;;;4988355;28;20425;-68
2022/03/29 13:46:19;;;;;;;22.48;9.98;;;12.10;99.90;;;;;;4988097;28;20449;-68
2022/03/29 13:48:47;;;;;;;18.90;8.88;;;;;;;;;;4973273;28;20467;-68
2022/03/29 13:51:14;;;;;;;19.50;9.00;;;;;;;;;;4986929;28;20437;-72
2022/03/29 13:53:42;;;;;;;20.17;9.75;;;;;;;;;;4983987;28;20452;-68
2022/03/29 13:56:08;;;;;;;21.37;10.13;;;;;;;;;;4989235;28;20491;-68
2022/03/29 13:58:34;;;;;;;19.85;9.70;;;;;;;;;;4972265;28;20444;-68
2022/03/29 14:01:01;;;;;;;24.50;9.95;;;;;;;;;;4997534;28;20437;-69
2022/03/29 14:03:28;;;;;;;21.02;9.20;;;;;;;;;;4987082;28;20417;-68
2022/03/29 14:05:54;;;;;;;17.95;9.63;;;;;;;;;;4986300;28;20442;-68
2022/03/29 14:08:21;;;;;;;19.75;9.15;;;;;;;;;;4995459;28;20486;-69
2022/03/29 14:10:47;;;;;;;23.35;9.23;;;;;;;;;;4993904;28;20491;-67
2022/03/29 14:13:14;;;;;;;22.50;8.82;;;;;;;;;;4986492;28;20454;-68
2022/03/29 14:15:47;;;;;;;21.33;9.63;;;12.00;99.90;;;;;;4986352;28;21066;-68
2022/03/29 14:18:16;;;;;;;25.13;10.07;;;;;;;;;;4970234;28;20426;-68
2022/03/29 14:20:42;;;;;;;25.30;9.77;;;;;;;;;;4989385;28;21373;-68
2022/03/29 14:23:09;;;;;;;22.38;9.52;;;;;;;;;;4999296;28;20936;-68